sensor_id;sensor_type;location;lat;lon;timestamp;P1;durP1;ratioP1;P2;durP2;ratioP2
27642;SDS011;15053;48.618;10.024;2022-12-18T00:04:07;181.88;;;37.38;;
27642;SDS011;15053;48.618;10.024;2022-12-18T00:06:41;141.93;;;32.75;;
27642;SDS011;15053;48.618;10.024;2022-12-18T00:09:09;130.43;;;35.05;;
27642;SDS011;15053;48.618;10.024;2022-12-18T00:11:36;152.38;;;34.05;;
27642;SDS011;15053;48.618;10.024;2022-12-18T00:14:02;122.80;;;33.60;;
27642;SDS011;15053;48.618;10.024;2022-12-18T00:16:29;144.90;;;35.13;;
27642;SDS011;15053;48.618;10.024;2022-12-18T00:18:59;118.45;;;32.33;;
27642;SDS011;15053;48.618;10.024;2022-12-18T00:21:26;140.07;;;33.53;;
27642;SDS011;15053;48.618;10.024;2022-12-18T00:23:56;132.15;;;34.08;;
27642;SDS011;15053;48.618;10.024;2022-12-18T00:26:25;145.13;;;34.03;;
27642;SDS011;15053;48.618;10.024;2022-12-18T00:28:58;160.90;;;32.72;;
27642;SDS011;15053;48.618;10.024;2022-12-18T00:31:29;125.15;;;31.10;;
27642;SDS011;15053;48.618;10.024;2022-12-18T00:33:56;170.07;;;34.53;;
27642;SDS011;15053;48.618;10.024;2022-12-18T00:36:24;148.57;;;27.98;;
27642;SDS011;15053;48.618;10.024;2022-12-18T00:38:53;127.43;;;28.48;;
27642;SDS011;15053;48.618;10.024;2022-12-18T00:41:21;119.13;;;28.63;;
27642;SDS011;15053;48.618;10.024;2022-12-18T00:44:07;121.55;;;28.92;;
27642;SDS011;15053;48.618;10.024;2022-12-18T00:46:36;122.30;;;25.27;;
27642;SDS011;15053;48.618;10.024;2022-12-18T00:49:02;134.43;;;25.08;;
27642;SDS011;15053;48.618;10.024;2022-12-18T00:51:30;99.93;;;26.48;;
27642;SDS011;15053;48.618;10.024;2022-12-18T00:53:56;114.43;;;29.83;;
27642;SDS011;15053;48.618;10.024;2022-12-18T00:56:23;105.47;;;29.42;;
27642;SDS011;15053;48.618;10.024;2022-12-18T00:58:51;126.47;;;28.00;;
27642;SDS011;15053;48.618;10.024;2022-12-18T01:01:18;126.75;;;31.20;;
27642;SDS011;15053;48.618;10.024;2022-12-18T01:03:45;106.85;;;27.23;;
27642;SDS011;15053;48.618;10.024;2022-12-18T01:06:13;103.45;;;28.30;;
27642;SDS011;15053;48.618;10.024;2022-12-18T01:08:40;97.13;;;25.02;;
27642;SDS011;15053;48.618;10.024;2022-12-18T01:11:12;93.88;;;26.52;;
27642;SDS011;15053;48.618;10.024;2022-12-18T01:13:40;91.35;;;23.67;;
27642;SDS011;15053;48.618;10.024;2022-12-18T01:16:07;87.53;;;24.90;;
27642;SDS011;15053;48.618;10.024;2022-12-18T01:18:35;96.50;;;25.45;;
27642;SDS011;15053;48.618;10.024;2022-12-18T01:21:05;73.78;;;22.92;;
27642;SDS011;15053;48.618;10.024;2022-12-18T01:26:14;71.47;;;20.88;;
27642;SDS011;15053;48.618;10.024;2022-12-18T01:28:42;80.43;;;23.77;;
27642;SDS011;15053;48.618;10.024;2022-12-18T01:31:28;78.47;;;23.20;;
27642;SDS011;15053;48.618;10.024;2022-12-18T01:33:57;81.07;;;21.88;;
27642;SDS011;15053;48.618;10.024;2022-12-18T01:36:27;101.68;;;22.70;;
27642;SDS011;15053;48.618;10.024;2022-12-18T01:38:55;92.80;;;23.52;;
27642;SDS011;15053;48.618;10.024;2022-12-18T01:41:24;95.15;;;22.30;;
27642;SDS011;15053;48.618;10.024;2022-12-18T01:50:16;94.60;;;23.08;;
27642;SDS011;15053;48.618;10.024;2022-12-18T01:52:53;106.55;;;22.38;;
27642;SDS011;15053;48.618;10.024;2022-12-18T01:55:22;88.78;;;24.42;;
27642;SDS011;15053;48.618;10.024;2022-12-18T01:57:54;84.47;;;23.25;;
27642;SDS011;15053;48.618;10.024;2022-12-18T02:00:24;101.28;;;24.42;;
27642;SDS011;15053;48.618;10.024;2022-12-18T02:02:51;93.57;;;23.00;;
27642;SDS011;15053;48.618;10.024;2022-12-18T02:05:24;93.05;;;23.10;;
27642;SDS011;15053;48.618;10.024;2022-12-18T02:18:32;102.20;;;25.15;;
27642;SDS011;15053;48.618;10.024;2022-12-18T02:26:41;94.43;;;23.80;;
27642;SDS011;15053;48.618;10.024;2022-12-18T02:29:18;132.63;;;25.95;;
27642;SDS011;15053;48.618;10.024;2022-12-18T02:31:54;109.68;;;23.27;;
27642;SDS011;15053;48.618;10.024;2022-12-18T02:34:26;96.32;;;24.63;;
27642;SDS011;15053;48.618;10.024;2022-12-18T02:36:57;109.38;;;25.02;;
27642;SDS011;15053;48.618;10.024;2022-12-18T02:39:26;107.55;;;24.63;;
27642;SDS011;15053;48.618;10.024;2022-12-18T02:41:59;175.57;;;28.52;;
27642;SDS011;15053;48.618;10.024;2022-12-18T02:44:34;102.15;;;26.38;;
27642;SDS011;15053;48.618;10.024;2022-12-18T02:47:08;101.07;;;24.88;;
27642;SDS011;15053;48.618;10.024;2022-12-18T02:52:41;97.88;;;26.63;;
27642;SDS011;15053;48.618;10.024;2022-12-18T02:55:24;125.07;;;29.73;;
27642;SDS011;15053;48.618;10.024;2022-12-18T02:58:15;146.65;;;27.48;;
27642;SDS011;15053;48.618;10.024;2022-12-18T03:00:58;109.25;;;25.17;;
27642;SDS011;15053;48.618;10.024;2022-12-18T03:03:31;119.68;;;27.38;;
27642;SDS011;15053;48.618;10.024;2022-12-18T03:06:22;122.63;;;28.58;;
27642;SDS011;15053;48.618;10.024;2022-12-18T03:09:01;146.90;;;29.95;;
27642;SDS011;15053;48.618;10.024;2022-12-18T03:11:32;125.07;;;27.90;;
27642;SDS011;15053;48.618;10.024;2022-12-18T03:14:22;148.93;;;31.58;;
27642;SDS011;15053;48.618;10.024;2022-12-18T03:16:53;152.07;;;31.98;;
27642;SDS011;15053;48.618;10.024;2022-12-18T03:19:24;118.68;;;30.88;;
27642;SDS011;15053;48.618;10.024;2022-12-18T03:21:57;133.05;;;29.25;;
27642;SDS011;15053;48.618;10.024;2022-12-18T03:24:32;154.73;;;29.70;;
27642;SDS011;15053;48.618;10.024;2022-12-18T03:27:04;158.27;;;33.55;;
27642;SDS011;15053;48.618;10.024;2022-12-18T03:29:38;129.70;;;28.77;;
27642;SDS011;15053;48.618;10.024;2022-12-18T03:32:14;122.32;;;26.58;;
27642;SDS011;15053;48.618;10.024;2022-12-18T03:34:45;153.20;;;34.38;;
27642;SDS011;15053;48.618;10.024;2022-12-18T03:39:43;131.57;;;28.55;;
27642;SDS011;15053;48.618;10.024;2022-12-18T03:42:18;140.07;;;32.50;;
27642;SDS011;15053;48.618;10.024;2022-12-18T03:44:57;114.20;;;28.33;;
27642;SDS011;15053;48.618;10.024;2022-12-18T03:47:36;142.18;;;29.52;;
27642;SDS011;15053;48.618;10.024;2022-12-18T03:50:22;128.88;;;29.75;;
27642;SDS011;15053;48.618;10.024;2022-12-18T03:55:32;137.63;;;31.10;;
27642;SDS011;15053;48.618;10.024;2022-12-18T03:58:03;142.10;;;31.92;;
27642;SDS011;15053;48.618;10.024;2022-12-18T04:00:45;120.68;;;29.08;;
27642;SDS011;15053;48.618;10.024;2022-12-18T04:03:16;119.82;;;32.80;;
27642;SDS011;15053;48.618;10.024;2022-12-18T04:05:53;120.55;;;33.58;;
27642;SDS011;15053;48.618;10.024;2022-12-18T04:08:22;123.53;;;31.80;;
27642;SDS011;15053;48.618;10.024;2022-12-18T04:10:59;135.77;;;30.85;;
27642;SDS011;15053;48.618;10.024;2022-12-18T04:13:31;114.05;;;29.23;;
27642;SDS011;15053;48.618;10.024;2022-12-18T04:16:02;125.47;;;32.20;;
27642;SDS011;15053;48.618;10.024;2022-12-18T04:18:29;154.73;;;33.85;;
27642;SDS011;15053;48.618;10.024;2022-12-18T04:20:56;121.68;;;29.40;;
27642;SDS011;15053;48.618;10.024;2022-12-18T04:23:23;134.10;;;33.80;;
27642;SDS011;15053;48.618;10.024;2022-12-18T04:25:52;140.90;;;30.90;;
27642;SDS011;15053;48.618;10.024;2022-12-18T04:28:32;115.85;;;30.38;;
27642;SDS011;15053;48.618;10.024;2022-12-18T04:30:59;138.70;;;32.58;;
27642;SDS011;15053;48.618;10.024;2022-12-18T04:33:26;126.38;;;30.40;;
27642;SDS011;15053;48.618;10.024;2022-12-18T04:35:53;139.60;;;32.70;;
27642;SDS011;15053;48.618;10.024;2022-12-18T04:38:19;134.70;;;30.58;;
27642;SDS011;15053;48.618;10.024;2022-12-18T04:40:52;140.10;;;29.83;;
27642;SDS011;15053;48.618;10.024;2022-12-18T04:43:24;124.47;;;29.45;;
27642;SDS011;15053;48.618;10.024;2022-12-18T04:45:51;135.02;;;31.27;;
27642;SDS011;15053;48.618;10.024;2022-12-18T04:48:17;129.55;;;31.15;;
27642;SDS011;15053;48.618;10.024;2022-12-18T04:50:44;137.95;;;31.42;;
27642;SDS011;15053;48.618;10.024;2022-12-18T04:53:10;114.43;;;29.50;;
27642;SDS011;15053;48.618;10.024;2022-12-18T04:55:37;133.98;;;28.65;;
27642;SDS011;15053;48.618;10.024;2022-12-18T04:58:04;124.40;;;32.25;;
27642;SDS011;15053;48.618;10.024;2022-12-18T05:00:30;123.85;;;28.23;;
27642;SDS011;15053;48.618;10.024;2022-12-18T05:02:56;131.35;;;30.88;;
27642;SDS011;15053;48.618;10.024;2022-12-18T05:05:23;137.93;;;29.67;;
27642;SDS011;15053;48.618;10.024;2022-12-18T05:07:49;121.00;;;31.17;;
27642;SDS011;15053;48.618;10.024;2022-12-18T05:10:16;137.73;;;31.30;;
27642;SDS011;15053;48.618;10.024;2022-12-18T05:12:42;126.85;;;31.38;;
27642;SDS011;15053;48.618;10.024;2022-12-18T05:15:29;109.22;;;29.58;;
27642;SDS011;15053;48.618;10.024;2022-12-18T05:17:58;136.95;;;32.97;;
27642;SDS011;15053;48.618;10.024;2022-12-18T05:20:25;128.98;;;30.70;;
27642;SDS011;15053;48.618;10.024;2022-12-18T05:22:52;119.13;;;29.85;;
27642;SDS011;15053;48.618;10.024;2022-12-18T05:25:19;140.98;;;32.15;;
27642;SDS011;15053;48.618;10.024;2022-12-18T05:27:46;123.72;;;29.95;;
27642;SDS011;15053;48.618;10.024;2022-12-18T05:30:13;128.55;;;30.65;;
27642;SDS011;15053;48.618;10.024;2022-12-18T05:32:40;136.20;;;30.73;;
27642;SDS011;15053;48.618;10.024;2022-12-18T05:35:07;125.05;;;28.80;;
27642;SDS011;15053;48.618;10.024;2022-12-18T05:37:35;130.02;;;32.67;;
27642;SDS011;15053;48.618;10.024;2022-12-18T05:40:08;135.50;;;33.35;;
27642;SDS011;15053;48.618;10.024;2022-12-18T05:42:35;136.63;;;31.95;;
27642;SDS011;15053;48.618;10.024;2022-12-18T05:45:02;164.27;;;32.90;;
27642;SDS011;15053;48.618;10.024;2022-12-18T05:47:28;125.78;;;31.20;;
27642;SDS011;15053;48.618;10.024;2022-12-18T05:49:55;128.50;;;33.88;;
27642;SDS011;15053;48.618;10.024;2022-12-18T05:52:21;120.70;;;34.42;;
27642;SDS011;15053;48.618;10.024;2022-12-18T05:54:48;125.43;;;32.53;;
27642;SDS011;15053;48.618;10.024;2022-12-18T05:57:15;135.82;;;29.85;;
27642;SDS011;15053;48.618;10.024;2022-12-18T05:59:41;125.90;;;30.90;;
27642;SDS011;15053;48.618;10.024;2022-12-18T06:02:08;131.90;;;31.05;;
27642;SDS011;15053;48.618;10.024;2022-12-18T06:04:34;141.55;;;30.80;;
27642;SDS011;15053;48.618;10.024;2022-12-18T06:07:01;145.88;;;32.47;;
27642;SDS011;15053;48.618;10.024;2022-12-18T06:09:29;139.13;;;30.00;;
27642;SDS011;15053;48.618;10.024;2022-12-18T06:11:55;132.98;;;29.83;;
27642;SDS011;15053;48.618;10.024;2022-12-18T06:14:22;124.10;;;30.35;;
27642;SDS011;15053;48.618;10.024;2022-12-18T06:16:50;124.30;;;32.65;;
27642;SDS011;15053;48.618;10.024;2022-12-18T06:19:18;130.02;;;30.73;;
27642;SDS011;15053;48.618;10.024;2022-12-18T06:21:44;139.13;;;30.27;;
27642;SDS011;15053;48.618;10.024;2022-12-18T06:24:10;120.35;;;28.50;;
27642;SDS011;15053;48.618;10.024;2022-12-18T06:26:38;113.07;;;29.35;;
27642;SDS011;15053;48.618;10.024;2022-12-18T06:29:05;139.70;;;32.50;;
27642;SDS011;15053;48.618;10.024;2022-12-18T06:31:32;129.52;;;30.92;;
27642;SDS011;15053;48.618;10.024;2022-12-18T06:33:59;122.97;;;29.58;;
27642;SDS011;15053;48.618;10.024;2022-12-18T06:36:28;136.05;;;29.25;;
27642;SDS011;15053;48.618;10.024;2022-12-18T06:38:56;146.52;;;28.00;;
27642;SDS011;15053;48.618;10.024;2022-12-18T06:41:23;133.77;;;30.58;;
27642;SDS011;15053;48.618;10.024;2022-12-18T06:43:50;127.22;;;31.02;;
27642;SDS011;15053;48.618;10.024;2022-12-18T06:46:23;114.18;;;27.77;;
27642;SDS011;15053;48.618;10.024;2022-12-18T06:48:50;126.78;;;28.75;;
27642;SDS011;15053;48.618;10.024;2022-12-18T06:51:17;126.55;;;33.00;;
27642;SDS011;15053;48.618;10.024;2022-12-18T06:53:45;118.47;;;30.92;;
27642;SDS011;15053;48.618;10.024;2022-12-18T06:56:12;114.45;;;28.80;;
27642;SDS011;15053;48.618;10.024;2022-12-18T06:58:38;121.63;;;30.00;;
27642;SDS011;15053;48.618;10.024;2022-12-18T07:01:06;128.75;;;26.92;;
27642;SDS011;15053;48.618;10.024;2022-12-18T07:03:35;126.38;;;27.92;;
27642;SDS011;15053;48.618;10.024;2022-12-18T07:06:02;121.43;;;27.60;;
27642;SDS011;15053;48.618;10.024;2022-12-18T07:08:30;110.72;;;25.30;;
27642;SDS011;15053;48.618;10.024;2022-12-18T07:10:57;100.68;;;22.63;;
27642;SDS011;15053;48.618;10.024;2022-12-18T07:13:24;131.18;;;25.90;;
27642;SDS011;15053;48.618;10.024;2022-12-18T07:15:50;117.82;;;25.83;;
27642;SDS011;15053;48.618;10.024;2022-12-18T07:18:17;136.07;;;32.35;;
27642;SDS011;15053;48.618;10.024;2022-12-18T07:20:43;88.00;;;22.58;;
27642;SDS011;15053;48.618;10.024;2022-12-18T07:23:11;123.75;;;23.30;;
27642;SDS011;15053;48.618;10.024;2022-12-18T07:25:37;123.07;;;25.70;;
27642;SDS011;15053;48.618;10.024;2022-12-18T07:28:04;104.65;;;26.95;;
27642;SDS011;15053;48.618;10.024;2022-12-18T07:30:30;133.25;;;24.40;;
27642;SDS011;15053;48.618;10.024;2022-12-18T07:32:57;105.78;;;23.00;;
27642;SDS011;15053;48.618;10.024;2022-12-18T07:35:23;105.00;;;26.05;;
27642;SDS011;15053;48.618;10.024;2022-12-18T07:37:50;134.82;;;30.30;;
27642;SDS011;15053;48.618;10.024;2022-12-18T07:40:17;85.00;;;22.27;;
27642;SDS011;15053;48.618;10.024;2022-12-18T07:42:44;98.20;;;23.15;;
27642;SDS011;15053;48.618;10.024;2022-12-18T07:45:10;99.88;;;22.55;;
27642;SDS011;15053;48.618;10.024;2022-12-18T07:47:37;80.47;;;20.80;;
27642;SDS011;15053;48.618;10.024;2022-12-18T07:50:04;85.18;;;21.20;;
27642;SDS011;15053;48.618;10.024;2022-12-18T07:52:32;79.78;;;22.52;;
27642;SDS011;15053;48.618;10.024;2022-12-18T07:54:59;97.28;;;23.33;;
27642;SDS011;15053;48.618;10.024;2022-12-18T07:57:25;105.57;;;26.40;;
27642;SDS011;15053;48.618;10.024;2022-12-18T08:00:12;94.25;;;24.20;;
27642;SDS011;15053;48.618;10.024;2022-12-18T08:02:39;107.05;;;22.08;;
27642;SDS011;15053;48.618;10.024;2022-12-18T08:05:07;84.32;;;22.40;;
27642;SDS011;15053;48.618;10.024;2022-12-18T08:07:34;82.47;;;22.15;;
27642;SDS011;15053;48.618;10.024;2022-12-18T08:10:00;106.57;;;23.63;;
27642;SDS011;15053;48.618;10.024;2022-12-18T08:12:27;101.60;;;23.77;;
27642;SDS011;15053;48.618;10.024;2022-12-18T08:14:53;109.22;;;23.35;;
27642;SDS011;15053;48.618;10.024;2022-12-18T08:17:20;108.75;;;21.77;;
27642;SDS011;15053;48.618;10.024;2022-12-18T08:19:46;91.63;;;23.95;;
27642;SDS011;15053;48.618;10.024;2022-12-18T08:22:13;90.07;;;19.77;;
27642;SDS011;15053;48.618;10.024;2022-12-18T08:24:39;100.65;;;23.15;;
27642;SDS011;15053;48.618;10.024;2022-12-18T08:27:05;89.95;;;22.38;;
27642;SDS011;15053;48.618;10.024;2022-12-18T08:29:52;91.50;;;21.98;;
27642;SDS011;15053;48.618;10.024;2022-12-18T08:32:18;125.22;;;24.20;;
27642;SDS011;15053;48.618;10.024;2022-12-18T08:34:45;123.03;;;25.60;;
27642;SDS011;15053;48.618;10.024;2022-12-18T08:37:11;108.63;;;24.23;;
27642;SDS011;15053;48.618;10.024;2022-12-18T08:39:38;115.47;;;22.90;;
27642;SDS011;15053;48.618;10.024;2022-12-18T08:42:04;90.15;;;21.17;;
27642;SDS011;15053;48.618;10.024;2022-12-18T08:44:50;76.43;;;20.60;;
27642;SDS011;15053;48.618;10.024;2022-12-18T08:47:16;82.55;;;22.10;;
27642;SDS011;15053;48.618;10.024;2022-12-18T08:49:43;81.47;;;21.52;;
27642;SDS011;15053;48.618;10.024;2022-12-18T08:52:09;96.80;;;21.70;;
27642;SDS011;15053;48.618;10.024;2022-12-18T08:54:35;94.00;;;20.88;;
27642;SDS011;15053;48.618;10.024;2022-12-18T08:57:02;110.00;;;21.65;;
27642;SDS011;15053;48.618;10.024;2022-12-18T08:59:28;106.47;;;23.02;;
27642;SDS011;15053;48.618;10.024;2022-12-18T09:01:55;80.43;;;19.27;;
27642;SDS011;15053;48.618;10.024;2022-12-18T09:04:22;123.70;;;24.52;;
27642;SDS011;15053;48.618;10.024;2022-12-18T09:06:48;85.95;;;20.92;;
27642;SDS011;15053;48.618;10.024;2022-12-18T09:09:15;112.53;;;21.63;;
27642;SDS011;15053;48.618;10.024;2022-12-18T09:11:42;91.75;;;20.10;;
27642;SDS011;15053;48.618;10.024;2022-12-18T09:14:08;79.60;;;18.40;;
27642;SDS011;15053;48.618;10.024;2022-12-18T09:16:35;96.88;;;21.52;;
27642;SDS011;15053;48.618;10.024;2022-12-18T09:19:03;123.80;;;21.63;;
27642;SDS011;15053;48.618;10.024;2022-12-18T09:21:31;93.22;;;23.55;;
27642;SDS011;15053;48.618;10.024;2022-12-18T09:24:02;92.18;;;22.30;;
27642;SDS011;15053;48.618;10.024;2022-12-18T09:26:34;88.90;;;20.85;;
27642;SDS011;15053;48.618;10.024;2022-12-18T09:29:00;86.97;;;20.98;;
27642;SDS011;15053;48.618;10.024;2022-12-18T09:31:28;98.07;;;21.00;;
27642;SDS011;15053;48.618;10.024;2022-12-18T09:33:55;90.78;;;21.40;;
27642;SDS011;15053;48.618;10.024;2022-12-18T09:36:22;106.07;;;22.20;;
27642;SDS011;15053;48.618;10.024;2022-12-18T09:38:49;88.05;;;21.27;;
27642;SDS011;15053;48.618;10.024;2022-12-18T09:41:33;84.63;;;19.60;;
27642;SDS011;15053;48.618;10.024;2022-12-18T09:44:25;73.27;;;21.07;;
27642;SDS011;15053;48.618;10.024;2022-12-18T09:47:09;71.63;;;19.63;;
27642;SDS011;15053;48.618;10.024;2022-12-18T09:49:42;102.10;;;22.90;;
27642;SDS011;15053;48.618;10.024;2022-12-18T09:54:46;69.65;;;20.15;;
27642;SDS011;15053;48.618;10.024;2022-12-18T09:57:19;67.97;;;22.02;;
27642;SDS011;15053;48.618;10.024;2022-12-18T09:59:56;75.55;;;22.35;;
27642;SDS011;15053;48.618;10.024;2022-12-18T10:02:36;93.85;;;21.98;;
27642;SDS011;15053;48.618;10.024;2022-12-18T10:05:06;76.88;;;21.80;;
27642;SDS011;15053;48.618;10.024;2022-12-18T10:07:55;70.75;;;21.25;;
27642;SDS011;15053;48.618;10.024;2022-12-18T10:10:31;84.32;;;21.30;;
27642;SDS011;15053;48.618;10.024;2022-12-18T10:13:19;67.10;;;21.10;;
27642;SDS011;15053;48.618;10.024;2022-12-18T10:22:01;76.85;;;21.83;;
27642;SDS011;15053;48.618;10.024;2022-12-18T10:28:15;84.50;;;23.45;;
27642;SDS011;15053;48.618;10.024;2022-12-18T10:30:43;82.32;;;21.55;;
27642;SDS011;15053;48.618;10.024;2022-12-18T10:33:11;81.28;;;24.60;;
27642;SDS011;15053;48.618;10.024;2022-12-18T10:35:42;75.22;;;22.67;;
27642;SDS011;15053;48.618;10.024;2022-12-18T10:41:03;82.30;;;21.35;;
27642;SDS011;15053;48.618;10.024;2022-12-18T10:43:34;82.28;;;24.40;;
27642;SDS011;15053;48.618;10.024;2022-12-18T10:48:36;76.78;;;23.38;;
27642;SDS011;15053;48.618;10.024;2022-12-18T10:51:21;86.55;;;24.58;;
27642;SDS011;15053;48.618;10.024;2022-12-18T10:53:51;80.70;;;25.13;;
27642;SDS011;15053;48.618;10.024;2022-12-18T10:56:21;72.97;;;22.77;;
27642;SDS011;15053;48.618;10.024;2022-12-18T10:58:57;91.30;;;24.40;;
27642;SDS011;15053;48.618;10.024;2022-12-18T11:01:33;86.28;;;21.75;;
27642;SDS011;15053;48.618;10.024;2022-12-18T11:04:13;74.15;;;23.30;;
27642;SDS011;15053;48.618;10.024;2022-12-18T11:09:38;84.43;;;23.52;;
27642;SDS011;15053;48.618;10.024;2022-12-18T11:12:16;84.55;;;22.35;;
27642;SDS011;15053;48.618;10.024;2022-12-18T11:17:19;99.50;;;22.90;;
27642;SDS011;15053;48.618;10.024;2022-12-18T11:19:52;94.18;;;22.52;;
27642;SDS011;15053;48.618;10.024;2022-12-18T11:22:21;85.45;;;23.83;;
27642;SDS011;15053;48.618;10.024;2022-12-18T11:25:38;119.13;;;27.00;;
27642;SDS011;15053;48.618;10.024;2022-12-18T11:28:04;92.32;;;22.23;;
27642;SDS011;15053;48.618;10.024;2022-12-18T11:31:08;90.10;;;24.13;;
27642;SDS011;15053;48.618;10.024;2022-12-18T11:33:35;90.07;;;23.35;;
27642;SDS011;15053;48.618;10.024;2022-12-18T11:36:23;80.15;;;26.42;;
27642;SDS011;15053;48.618;10.024;2022-12-18T11:38:52;70.72;;;24.90;;
27642;SDS011;15053;48.618;10.024;2022-12-18T11:41:25;77.47;;;23.58;;
27642;SDS011;15053;48.618;10.024;2022-12-18T11:44:18;68.85;;;22.50;;
27642;SDS011;15053;48.618;10.024;2022-12-18T11:47:01;106.97;;;25.45;;
27642;SDS011;15053;48.618;10.024;2022-12-18T11:49:35;100.70;;;25.33;;
27642;SDS011;15053;48.618;10.024;2022-12-18T11:54:50;70.50;;;23.25;;
27642;SDS011;15053;48.618;10.024;2022-12-18T11:57:31;72.78;;;22.70;;
27642;SDS011;15053;48.618;10.024;2022-12-18T12:05:36;69.93;;;21.83;;
27642;SDS011;15053;48.618;10.024;2022-12-18T12:11:22;68.88;;;23.48;;
27642;SDS011;15053;48.618;10.024;2022-12-18T12:22:20;77.85;;;22.50;;
27642;SDS011;15053;48.618;10.024;2022-12-18T12:30:19;66.82;;;20.65;;
27642;SDS011;15053;48.618;10.024;2022-12-18T12:33:02;99.03;;;22.23;;
27642;SDS011;15053;48.618;10.024;2022-12-18T12:35:47;91.32;;;22.25;;
27642;SDS011;15053;48.618;10.024;2022-12-18T12:38:24;88.50;;;20.53;;
27642;SDS011;15053;48.618;10.024;2022-12-18T12:41:05;64.00;;;19.95;;
27642;SDS011;15053;48.618;10.024;2022-12-18T12:43:55;89.03;;;20.65;;
27642;SDS011;15053;48.618;10.024;2022-12-18T12:46:26;63.15;;;20.83;;
27642;SDS011;15053;48.618;10.024;2022-12-18T12:49:01;82.20;;;22.52;;
27642;SDS011;15053;48.618;10.024;2022-12-18T12:51:40;59.55;;;20.58;;
27642;SDS011;15053;48.618;10.024;2022-12-18T12:54:17;83.18;;;22.35;;
27642;SDS011;15053;48.618;10.024;2022-12-18T13:02:47;70.82;;;21.52;;
27642;SDS011;15053;48.618;10.024;2022-12-18T13:05:25;64.45;;;21.70;;
27642;SDS011;15053;48.618;10.024;2022-12-18T13:08:03;79.18;;;25.55;;
27642;SDS011;15053;48.618;10.024;2022-12-18T13:10:37;67.28;;;22.15;;
27642;SDS011;15053;48.618;10.024;2022-12-18T13:13:07;73.13;;;21.95;;
27642;SDS011;15053;48.618;10.024;2022-12-18T13:15:46;59.20;;;20.97;;
27642;SDS011;15053;48.618;10.024;2022-12-18T13:18:32;63.55;;;20.88;;
27642;SDS011;15053;48.618;10.024;2022-12-18T13:23:33;60.72;;;19.60;;
27642;SDS011;15053;48.618;10.024;2022-12-18T13:28:53;60.58;;;19.55;;
27642;SDS011;15053;48.618;10.024;2022-12-18T13:36:54;68.15;;;20.17;;
27642;SDS011;15053;48.618;10.024;2022-12-18T13:39:23;47.17;;;17.27;;
27642;SDS011;15053;48.618;10.024;2022-12-18T13:44:33;69.13;;;20.98;;
27642;SDS011;15053;48.618;10.024;2022-12-18T13:49:57;81.65;;;19.20;;
27642;SDS011;15053;48.618;10.024;2022-12-18T13:52:26;72.97;;;18.30;;
27642;SDS011;15053;48.618;10.024;2022-12-18T13:54:55;121.43;;;22.85;;
27642;SDS011;15053;48.618;10.024;2022-12-18T13:57:28;64.35;;;18.98;;
27642;SDS011;15053;48.618;10.024;2022-12-18T14:02:55;77.80;;;18.00;;
27642;SDS011;15053;48.618;10.024;2022-12-18T14:05:23;64.13;;;18.48;;
27642;SDS011;15053;48.618;10.024;2022-12-18T14:07:51;55.20;;;19.35;;
27642;SDS011;15053;48.618;10.024;2022-12-18T14:10:19;60.08;;;19.63;;
27642;SDS011;15053;48.618;10.024;2022-12-18T14:13:08;52.83;;;18.40;;
27642;SDS011;15053;48.618;10.024;2022-12-18T14:15:41;59.60;;;19.48;;
27642;SDS011;15053;48.618;10.024;2022-12-18T14:20:52;57.05;;;21.67;;
27642;SDS011;15053;48.618;10.024;2022-12-18T14:23:29;58.25;;;21.30;;
27642;SDS011;15053;48.618;10.024;2022-12-18T14:25:58;71.80;;;18.95;;
27642;SDS011;15053;48.618;10.024;2022-12-18T14:28:31;106.03;;;22.17;;
27642;SDS011;15053;48.618;10.024;2022-12-18T14:30:57;81.15;;;19.58;;
27642;SDS011;15053;48.618;10.024;2022-12-18T14:33:25;62.28;;;21.70;;
27642;SDS011;15053;48.618;10.024;2022-12-18T14:38:21;73.15;;;19.88;;
27642;SDS011;15053;48.618;10.024;2022-12-18T14:43:23;92.93;;;20.75;;
27642;SDS011;15053;48.618;10.024;2022-12-18T14:45:51;60.72;;;21.40;;
27642;SDS011;15053;48.618;10.024;2022-12-18T14:48:21;79.78;;;20.05;;
27642;SDS011;15053;48.618;10.024;2022-12-18T14:51:00;108.13;;;21.83;;
27642;SDS011;15053;48.618;10.024;2022-12-18T14:53:31;83.95;;;21.50;;
27642;SDS011;15053;48.618;10.024;2022-12-18T14:56:26;73.28;;;20.40;;
27642;SDS011;15053;48.618;10.024;2022-12-18T14:59:04;66.72;;;19.42;;
27642;SDS011;15053;48.618;10.024;2022-12-18T15:01:47;60.85;;;20.02;;
27642;SDS011;15053;48.618;10.024;2022-12-18T15:04:28;70.72;;;20.77;;
27642;SDS011;15053;48.618;10.024;2022-12-18T15:23:34;73.22;;;20.77;;
27642;SDS011;15053;48.618;10.024;2022-12-18T15:26:08;65.15;;;18.95;;
27642;SDS011;15053;48.618;10.024;2022-12-18T15:28:43;83.38;;;21.30;;
27642;SDS011;15053;48.618;10.024;2022-12-18T15:33:39;74.40;;;21.30;;
27642;SDS011;15053;48.618;10.024;2022-12-18T15:36:15;66.28;;;19.55;;
27642;SDS011;15053;48.618;10.024;2022-12-18T15:38:47;59.92;;;20.27;;
27642;SDS011;15053;48.618;10.024;2022-12-18T15:41:15;68.32;;;22.90;;
27642;SDS011;15053;48.618;10.024;2022-12-18T15:43:50;72.88;;;21.85;;
27642;SDS011;15053;48.618;10.024;2022-12-18T15:46:23;80.03;;;19.00;;
27642;SDS011;15053;48.618;10.024;2022-12-18T15:48:52;59.38;;;20.48;;
27642;SDS011;15053;48.618;10.024;2022-12-18T15:51:28;68.25;;;20.52;;
27642;SDS011;15053;48.618;10.024;2022-12-18T15:53:58;74.60;;;19.85;;
27642;SDS011;15053;48.618;10.024;2022-12-18T15:56:27;73.55;;;20.00;;
27642;SDS011;15053;48.618;10.024;2022-12-18T15:59:17;72.05;;;21.90;;
27642;SDS011;15053;48.618;10.024;2022-12-18T16:01:46;79.32;;;21.17;;
27642;SDS011;15053;48.618;10.024;2022-12-18T16:04:15;75.50;;;20.27;;
27642;SDS011;15053;48.618;10.024;2022-12-18T16:06:43;88.60;;;21.65;;
27642;SDS011;15053;48.618;10.024;2022-12-18T16:09:29;93.25;;;22.23;;
27642;SDS011;15053;48.618;10.024;2022-12-18T16:11:55;73.18;;;21.35;;
27642;SDS011;15053;48.618;10.024;2022-12-18T16:16:59;108.53;;;24.85;;
27642;SDS011;15053;48.618;10.024;2022-12-18T16:19:28;84.60;;;21.75;;
27642;SDS011;15053;48.618;10.024;2022-12-18T16:21:56;80.43;;;21.20;;
27642;SDS011;15053;48.618;10.024;2022-12-18T16:24:24;102.22;;;22.73;;
27642;SDS011;15053;48.618;10.024;2022-12-18T16:26:53;136.13;;;25.48;;
27642;SDS011;15053;48.618;10.024;2022-12-18T16:29:21;88.78;;;22.50;;
27642;SDS011;15053;48.618;10.024;2022-12-18T16:34:23;121.07;;;29.95;;
27642;SDS011;15053;48.618;10.024;2022-12-18T16:36:58;320.67;;;66.20;;
27642;SDS011;15053;48.618;10.024;2022-12-18T16:39:31;187.65;;;43.92;;
27642;SDS011;15053;48.618;10.024;2022-12-18T16:42:04;104.75;;;28.45;;
27642;SDS011;15053;48.618;10.024;2022-12-18T16:44:33;103.45;;;29.73;;
27642;SDS011;15053;48.618;10.024;2022-12-18T16:47:01;92.07;;;27.83;;
27642;SDS011;15053;48.618;10.024;2022-12-18T16:49:29;78.30;;;25.88;;